UMKK 290400Z 11005MPS 9000 BKN009 02/01 Q1026 R24/19//95 NOSIG RMK QFE768/1024
QNH:(hPa/inHg/mmHg)1026 / 30.3 / 770
QFE:(hPa/inHg/mmHg)1024 / 30.25 / 768
Temperature2
Dew Point1
Visibility9000
Weather
Cloud CoverBKN (900);
Transition Altitude4000 ft.
Transition LevelFL50
SQUAWK